createdAt,value
2022-08-22T00:00:23.203Z,2.90
2022-08-22T00:02:47.156Z,2.53
2022-08-22T00:02:55.438Z,3.20
2022-08-22T00:05:51.138Z,3.38
2022-08-22T00:11:14.816Z,3.33
2022-08-22T00:16:31.852Z,3.40
2022-08-22T00:21:42.805Z,3.33
2022-08-22T00:26:54.116Z,3.60
2022-08-22T00:32:01.927Z,3.33
2022-08-22T00:37:19.209Z,3.40
2022-08-22T00:42:29.063Z,3.67
2022-08-22T00:47:59.168Z,3.28
2022-08-22T00:53:15.459Z,3.60
2022-08-22T00:58:22.414Z,3.27
2022-08-22T01:03:32.653Z,3.10
2022-08-22T01:08:34.875Z,3.20
2022-08-22T01:13:46.459Z,3.20
2022-08-22T01:19:06.835Z,3.30
2022-08-22T01:24:12.161Z,3.40
2022-08-22T01:29:35.439Z,3.30
2022-08-22T01:34:46.145Z,3.20
2022-08-22T01:39:48.501Z,3.27
2022-08-22T01:45:02.588Z,3.13
2022-08-22T01:50:28.683Z,3.17
2022-08-22T01:55:39.536Z,2.95
2022-08-22T02:01:08.448Z,2.95
2022-08-22T02:06:20.270Z,3.20
2022-08-22T02:11:45.334Z,3.13
2022-08-22T02:16:57.240Z,2.90
2022-08-22T02:22:05.154Z,3.00
2022-08-22T02:27:09.637Z,3.13
2022-08-22T02:32:19.981Z,3.00
2022-08-22T02:37:39.576Z,3.20
2022-08-22T02:42:48.949Z,3.13
2022-08-22T02:47:57.420Z,3.60
2022-08-22T02:53:04.281Z,3.30
2022-08-22T02:58:06.588Z,3.53
2022-08-22T03:03:17.356Z,3.58
2022-08-22T03:08:31.933Z,3.45
2022-08-22T03:13:49.449Z,3.53
2022-08-22T03:19:13.309Z,3.70
2022-08-22T03:24:23.502Z,3.42
2022-08-22T03:29:29.190Z,3.33
2022-08-22T03:34:34.080Z,3.83
2022-08-22T03:39:41.213Z,3.67
2022-08-22T03:44:48.887Z,3.42
2022-08-22T03:49:59.665Z,3.60
2022-08-22T03:55:20.659Z,3.70
2022-08-22T04:00:43.266Z,4.10
2022-08-22T04:06:07.855Z,4.25
2022-08-22T04:11:33.840Z,3.90
2022-08-22T04:16:51.440Z,4.50
2022-08-22T04:21:57.360Z,4.10
2022-08-22T04:27:05.345Z,4.30
2022-08-22T04:32:09.743Z,4.10
2022-08-22T04:37:16.911Z,4.00
2022-08-22T04:42:32.801Z,4.93
2022-08-22T04:47:36.479Z,4.10
2022-08-22T04:52:41.145Z,4.63
2022-08-22T04:57:52.164Z,4.20
2022-08-22T05:02:56.647Z,4.15
2022-08-22T05:08:02.954Z,4.00
2022-08-22T05:13:14.747Z,3.57
2022-08-22T05:18:29.776Z,3.03
2022-08-22T05:23:44.114Z,3.70
2022-08-22T05:28:53.300Z,4.47
2022-08-22T05:34:18.146Z,3.70
2022-08-22T05:39:25.253Z,3.97
2022-08-22T05:44:37.150Z,4.00
2022-08-22T05:50:00.156Z,4.30
2022-08-22T05:55:21.122Z,4.83
2022-08-22T06:00:27.137Z,4.43
2022-08-22T06:05:36.141Z,4.63
2022-08-22T06:10:48.941Z,4.90
2022-08-22T06:15:57.525Z,4.53
2022-08-22T06:21:03.337Z,4.30
2022-08-22T06:26:21.081Z,4.43
2022-08-22T06:31:30.331Z,5.33
2022-08-22T06:36:35.216Z,4.77
2022-08-22T06:41:50.884Z,4.33
2022-08-22T06:46:58.552Z,4.30
2022-08-22T06:52:01.902Z,4.17
2022-08-22T06:57:06.700Z,4.13
2022-08-22T07:02:26.741Z,4.10
2022-08-22T07:07:31.559Z,4.20
2022-08-22T07:12:38.173Z,3.77
2022-08-22T07:17:49.930Z,3.40
2022-08-22T07:22:59.890Z,3.60
2022-08-22T07:28:37.009Z,3.73
2022-08-22T07:33:57.790Z,2.97
2022-08-22T07:39:00.105Z,3.00
2022-08-22T07:44:11.672Z,3.33
2022-08-22T07:49:15.342Z,3.73
2022-08-22T07:54:27.836Z,3.57
2022-08-22T07:59:36.585Z,3.13
2022-08-22T08:04:40.819Z,3.10
2022-08-22T08:09:51.242Z,2.73
2022-08-22T08:14:56.808Z,3.03
2022-08-22T08:20:08.021Z,2.97
2022-08-22T08:25:14.191Z,3.67
2022-08-22T08:30:23.511Z,2.50
2022-08-22T08:35:31.709Z,2.63
2022-08-22T08:41:03.368Z,2.80
2022-08-22T08:46:17.401Z,2.90
2022-08-22T08:51:19.902Z,2.90
2022-08-22T08:56:33.285Z,2.70
2022-08-22T09:01:50.413Z,3.00
2022-08-22T09:06:56.786Z,2.53
2022-08-22T09:12:29.931Z,2.43
2022-08-22T09:17:44.507Z,2.97
2022-08-22T09:23:03.591Z,2.73
2022-08-22T09:28:14.349Z,3.07
2022-08-22T09:33:20.799Z,2.70
2022-08-22T09:38:31.147Z,2.87
2022-08-22T09:43:43.344Z,2.53
2022-08-22T09:49:10.500Z,2.72
2022-08-22T09:54:23.148Z,2.58
2022-08-22T09:59:36.406Z,2.85
2022-08-22T10:04:51.646Z,2.78
2022-08-22T10:10:21.407Z,2.77
2022-08-22T10:15:33.210Z,2.72
2022-08-22T10:20:50.140Z,2.90
2022-08-22T10:25:57.986Z,2.20
2022-08-22T10:31:21.279Z,2.45
2022-08-22T10:36:41.107Z,2.30
2022-08-22T10:41:52.686Z,2.75
2022-08-22T10:47:02.149Z,2.47
2022-08-22T10:52:16.277Z,2.42
2022-08-22T10:57:26.726Z,2.33
2022-08-22T11:02:37.710Z,2.45
2022-08-22T11:07:40.022Z,2.63
2022-08-22T11:12:49.693Z,2.97
2022-08-22T11:18:03.759Z,2.70
2022-08-22T11:23:24.959Z,2.38
2022-08-22T11:28:50.775Z,2.60
2022-08-22T11:33:58.651Z,2.30
2022-08-22T11:39:09.877Z,2.85
2022-08-22T11:44:29.780Z,2.42
2022-08-22T11:49:42.819Z,2.75
2022-08-22T11:54:48.144Z,2.90
2022-08-22T12:00:06.548Z,2.27
2022-08-22T12:05:24.610Z,2.67
2022-08-22T12:10:38.285Z,2.60
2022-08-22T12:16:00.006Z,2.50
2022-08-22T12:21:16.821Z,2.53
2022-08-22T12:26:27.329Z,2.60
2022-08-22T12:31:42.619Z,2.50
2022-08-22T12:36:53.852Z,3.17
2022-08-22T12:42:19.045Z,2.60
2022-08-22T12:47:42.450Z,2.55
2022-08-22T12:52:50.295Z,2.60
2022-08-22T12:58:02.369Z,2.33
2022-08-22T13:03:09.621Z,2.10
2022-08-22T13:08:35.642Z,2.15
2022-08-22T13:13:43.952Z,2.28
2022-08-22T13:19:07.435Z,2.17
2022-08-22T13:24:16.795Z,2.42
2022-08-22T13:29:39.660Z,2.00
2022-08-22T13:34:52.332Z,2.33
2022-08-22T13:40:04.006Z,2.10
2022-08-22T13:45:12.112Z,2.00
2022-08-22T13:50:19.214Z,1.88
2022-08-22T13:55:30.294Z,1.80
2022-08-22T14:00:35.925Z,2.28
2022-08-22T14:05:49.812Z,2.00
2022-08-22T14:10:58.033Z,1.90
2022-08-22T14:16:10.290Z,1.60
2022-08-22T14:21:21.741Z,1.83
2022-08-22T14:26:37.207Z,1.90
2022-08-22T14:31:40.086Z,1.60
2022-08-22T14:36:45.153Z,1.60
2022-08-22T14:41:59.408Z,1.50
2022-08-22T14:47:32.415Z,1.60
2022-08-22T14:52:40.572Z,1.50
2022-08-22T14:57:49.163Z,1.73
2022-08-22T15:02:51.891Z,1.47
2022-08-22T15:07:59.383Z,1.60
2022-08-22T15:13:08.045Z,1.70
2022-08-22T15:18:19.283Z,1.33
2022-08-22T15:23:23.337Z,1.50
2022-08-22T15:28:25.979Z,1.53
2022-08-22T15:33:40.150Z,1.50
2022-08-22T15:38:51.128Z,3.40
2022-08-22T15:44:02.030Z,1.40
2022-08-22T15:49:11.191Z,1.43
2022-08-22T15:54:24.924Z,1.53
2022-08-22T15:59:47.972Z,1.50
2022-08-22T16:05:08.040Z,2.43
2022-08-22T16:10:22.773Z,1.40
2022-08-22T16:16:03.927Z,1.50
2022-08-22T16:21:18.077Z,1.40
2022-08-22T16:26:40.025Z,1.43
2022-08-22T16:31:48.556Z,1.87
2022-08-22T16:36:50.894Z,1.60
2022-08-22T16:41:53.204Z,1.53
2022-08-22T16:47:12.123Z,1.67
2022-08-22T16:52:23.091Z,1.47
2022-08-22T16:57:34.659Z,1.43
2022-08-22T17:02:52.325Z,1.60
2022-08-22T17:08:13.532Z,1.57
2022-08-22T17:13:36.636Z,1.63
2022-08-22T17:18:56.725Z,1.67
2022-08-22T17:24:07.627Z,1.67
2022-08-22T17:29:30.634Z,1.40
2022-08-22T17:34:39.106Z,1.60
2022-08-22T17:39:42.271Z,1.70
2022-08-22T17:44:55.888Z,1.70
2022-08-22T17:50:03.775Z,1.50
2022-08-22T17:55:13.226Z,1.90
2022-08-22T18:00:24.987Z,1.60
2022-08-22T18:05:32.789Z,1.60
2022-08-22T18:10:47.715Z,1.90
2022-08-22T18:16:05.978Z,1.80
2022-08-22T18:21:20.944Z,1.47
2022-08-22T18:26:33.568Z,1.47
2022-08-22T18:31:56.103Z,1.53
2022-08-22T18:37:01.988Z,1.40
2022-08-22T18:42:09.594Z,1.80
2022-08-22T18:47:11.962Z,1.40
2022-08-22T18:52:17.318Z,1.23
2022-08-22T18:57:42.673Z,1.70
2022-08-22T19:02:56.079Z,2.00
2022-08-22T19:08:19.738Z,1.70
2022-08-22T19:13:34.271Z,1.90
2022-08-22T19:19:03.258Z,1.60
2022-08-22T19:24:12.029Z,1.88
2022-08-22T19:29:16.101Z,1.83
2022-08-22T19:34:30.835Z,1.90
2022-08-22T19:39:42.349Z,1.95
2022-08-22T19:44:59.689Z,1.80
2022-08-22T19:50:13.939Z,1.63
2022-08-22T19:55:33.744Z,1.87
2022-08-22T20:00:57.921Z,1.90
2022-08-22T20:06:22.132Z,1.50
2022-08-22T20:11:38.154Z,1.80
2022-08-22T20:17:00.933Z,1.73
2022-08-22T20:22:05.644Z,1.90
2022-08-22T20:27:17.035Z,1.65
2022-08-22T20:32:21.493Z,1.98
2022-08-22T20:37:50.672Z,1.90
2022-08-22T20:42:50.377Z,1.80
2022-08-22T20:47:55.410Z,1.50
2022-08-22T20:53:12.500Z,1.70
2022-08-22T20:58:27.689Z,2.10
2022-08-22T21:03:47.019Z,1.80
2022-08-22T21:09:28.979Z,1.95
2022-08-22T21:14:32.985Z,1.67
2022-08-22T21:19:35.431Z,1.77
2022-08-22T21:24:40.162Z,1.70
2022-08-22T21:29:47.347Z,1.70
2022-08-22T21:34:50.137Z,1.67
2022-08-22T21:40:02.667Z,2.00
2022-08-22T21:45:09.571Z,1.70
2022-08-22T21:50:25.069Z,1.92
2022-08-22T21:55:27.522Z,1.90
2022-08-22T22:00:44.279Z,2.10
2022-08-22T22:06:00.163Z,2.85
2022-08-22T22:11:04.716Z,1.92
2022-08-22T22:16:13.206Z,2.10
2022-08-22T22:21:20.703Z,2.00
2022-08-22T22:26:25.624Z,1.75
2022-08-22T22:31:30.559Z,2.00
2022-08-22T22:36:37.423Z,2.00
2022-08-22T22:41:47.013Z,2.15
2022-08-22T22:46:55.758Z,2.08
2022-08-22T22:52:00.799Z,2.05
2022-08-22T22:57:05.802Z,2.00
2022-08-22T23:02:21.814Z,1.90
2022-08-22T23:07:26.506Z,2.00
2022-08-22T23:12:32.043Z,1.83
2022-08-22T23:17:39.226Z,1.75
2022-08-22T23:22:45.581Z,1.70
2022-08-22T23:27:52.368Z,1.90
2022-08-22T23:32:57.576Z,1.80
2022-08-22T23:38:02.142Z,1.80
2022-08-22T23:43:04.671Z,1.80
2022-08-22T23:48:09.912Z,1.80
2022-08-22T23:53:12.310Z,1.80
2022-08-22T23:58:17.026Z,2.10
